Time;durP1;ratioP1;P1;durP2;ratioP2;P2;SDS_P1;SDS_P2;PMS_P1;PMS_P2;Temp;Humidity;BMP_temperature;BMP_pressure;BME280_temperature;BME280_humidity;BME280_pressure;Samples;Min_cycle;Max_cycle;Signal;HPM_P1;HPM_P2
2023/02/10 00:01:53;;;;;;;7.88;3.10;;;;;;;;;;5106375;28;20052;-74
2023/02/10 00:04:23;;;;;;;6.88;3.17;;;;;;;;;;5107307;28;20050;-74
2023/02/10 00:07:06;;;;;;;5.88;2.65;;;;;;;;;;5107101;28;20055;-76
2023/02/10 00:09:38;;;;;;;12.57;3.20;;;;;;;;;;5095900;28;20080;-74
2023/02/10 00:12:09;;;;;;;6.30;2.95;;;;;;;;;;5096715;28;20044;-76
2023/02/10 00:14:39;;;;;;;6.05;3.10;;;;;;;;;;5095675;28;20044;-76
2023/02/10 00:17:23;;;;;;;8.65;2.95;;;;;;;;;;5097008;28;20434;-75
2023/02/10 00:19:54;;;;;;;6.10;2.92;;;;;;;;;;5095105;28;20044;-74
2023/02/10 00:22:25;;;;;;;7.55;3.05;;;;;;;;;;5106170;28;20047;-73
2023/02/10 00:24:55;;;;;;;7.13;3.28;;;;;;;;;;5107613;28;20051;-74
2023/02/10 00:27:37;;;;;;;11.73;3.20;;;;;;;;;;5091640;28;20055;-73
2023/02/10 00:30:08;;;;;;;5.20;2.88;;;;;;;;;;5108128;28;20036;-75
2023/02/10 00:32:40;;;;;;;7.45;3.00;;;;;;;;;;5107598;28;20058;-75
2023/02/10 00:35:12;;;;;;;9.73;4.13;;;;;;;;;;5072300;28;20048;-75
2023/02/10 00:37:42;;;;;;;15.82;5.72;;;;;;;;;;5107410;28;20050;-76
2023/02/10 00:40:15;;;;;;;18.33;4.40;;;;;;;;;;5088802;28;20047;-77
2023/02/10 00:42:45;;;;;;;8.35;3.63;;;;;;;;;;5107317;28;20059;-75
2023/02/10 00:45:15;;;;;;;18.45;6.32;;;;;;;;;;5107408;28;20498;-76
2023/02/10 00:47:46;;;;;;;16.00;5.45;;;;;;;;;;5107134;28;20047;-75
2023/02/10 00:50:51;;;;;;;;;;;;;;;;;;;;;
2023/02/10 00:53:22;;;;;;;37.80;12.13;;;;;;;;;;5097886;28;20533;-75
2023/02/10 00:55:52;;;;;;;36.60;9.68;;;;;;;;;;5101409;28;20047;-75
2023/02/10 00:58:26;;;;;;;13.07;4.72;;;;;;;;;;5106504;28;20047;-75
2023/02/10 01:00:57;;;;;;;14.27;3.72;;;;;;;;;;5107334;28;20043;-76
2023/02/10 01:03:27;;;;;;;6.20;3.63;;;;;;;;;;5088680;28;20059;-75
2023/02/10 01:05:58;;;;;;;7.43;3.65;;;;;;;;;;5106660;28;20522;-76
2023/02/10 01:08:28;;;;;;;7.22;3.10;;;;;;;;;;5106950;28;20050;-77
2023/02/10 01:11:04;;;;;;;12.68;3.38;;;;;;;;;;5106830;28;20048;-74
2023/02/10 01:13:37;;;;;;;6.63;3.22;;;;;;;;;;5089801;28;20540;-76
2023/02/10 01:16:11;;;;;;;4.50;2.60;;;;;;;;;;5106879;28;20402;-75
2023/02/10 01:18:45;;;;;;;9.60;3.20;;;;;;;;;;5105894;28;20561;-75
2023/02/10 01:21:19;;;;;;;10.43;3.65;;;;;;;;;;5095327;28;20051;-75
2023/02/10 01:23:50;;;;;;;5.93;2.97;;;;;;;;;;5094982;28;20521;-75
2023/02/10 01:26:21;;;;;;;10.07;3.17;;;;;;;;;;5076926;28;20060;-75
2023/02/10 01:28:52;;;;;;;8.20;3.25;;;;;;;;;;5076195;28;20506;-75
2023/02/10 01:31:25;;;;;;;9.85;3.03;;;;;;;;;;5075163;28;20052;-75
2023/02/10 01:33:56;;;;;;;8.45;3.13;;;;;;;;;;5086448;28;20063;-75
2023/02/10 01:36:27;;;;;;;8.73;3.17;;;;;;;;;;5086050;28;20048;-74
2023/02/10 01:38:58;;;;;;;12.43;3.38;;;;;;;;;;5086026;28;20490;-74
2023/02/10 01:41:33;;;;;;;6.88;2.88;;;;;;;;;;5068014;28;20051;-74
2023/02/10 01:44:26;;;;;;;8.98;2.78;;;;;;;;;;5086832;28;20052;-74
2023/02/10 01:46:56;;;;;;;;;;;;;;;;;;5087230;28;20636;-75
2023/02/10 01:49:30;;;;;;;10.38;3.15;;;;;;;;;;5086442;28;19920;-73
2023/02/10 01:52:30;;;;;;;7.50;3.15;;;;;;;;;;4987400;28;20065;-74
2023/02/10 01:55:07;;;;;;;9.35;3.22;;;;;;;;;;5004470;28;20544;-74
2023/02/10 01:58:08;;;;;;;4.50;3.00;;;;;;;;;;4963983;28;20076;-74
2023/02/10 02:00:59;;;;;;;6.80;3.65;;;;;;;;;;5006171;28;20073;-74
2023/02/10 02:03:33;;;;;;;6.40;3.53;;;;;;;;;;5007245;28;20599;-74
2023/02/10 02:06:14;;;;;;;;;;;;;;;;;;;;;
2023/02/10 02:08:55;;;;;;;8.15;3.85;;;;;;;;;;5007894;28;20054;-74
2023/02/10 02:11:48;;;;;;;8.15;3.30;;;;;;;;;;5007651;28;20543;-74
2023/02/10 02:14:27;;;;;;;11.60;3.33;;;;;;;;;;5007086;28;20058;-73
2023/02/10 02:17:26;;;;;;;8.20;3.20;;;;;;;;;;5056345;28;20048;-74
2023/02/10 02:23:04;;;;;;;7.82;3.17;;;;;;;;;;5090037;28;20426;-74
2023/02/10 02:25:50;;;;;;;9.35;3.78;;;;;;;;;;5070708;28;20539;-74
2023/02/10 02:28:35;;;;;;;5.88;3.17;;;;;;;;;;5089306;28;20542;-74
2023/02/10 02:31:39;;;;;;;6.55;3.10;;;;;;;;;;5089714;28;20761;-74
2023/02/10 02:34:27;;;;;;;10.60;2.97;;;;;;;;;;5090102;28;20411;-74
2023/02/10 02:37:27;;;;;;;5.00;3.35;;;;;;;;;;5070709;28;20052;-74
2023/02/10 02:39:58;;;;;;;6.78;3.47;;;;;;;;;;5044927;28;20074;-74
2023/02/10 02:42:33;;;;;;;7.95;3.72;;;;;;;;;;5089726;28;20077;-74
2023/02/10 02:45:17;;;;;;;11.55;7.30;;;;;;;;;;5070860;28;21269;-73
2023/02/10 02:48:11;;;;;;;7.32;3.42;;;;;;;;;;5089684;28;20402;-74
2023/02/10 02:50:59;;;;;;;8.75;3.20;;;;;;;;;;5079026;28;20060;-74
2023/02/10 02:53:58;;;;;;;13.70;3.70;;;;;;;;;;5089408;28;20047;-74
2023/02/10 02:56:59;;;;;;;6.28;3.10;;;;;;;;;;5070416;28;20412;-73
2023/02/10 02:59:49;;;;;;;7.13;3.58;;;;;;;;;;5089009;28;20052;-73
2023/02/10 03:02:41;;;;;;;7.57;3.70;;;;;;;;;;5057389;28;20059;-74
2023/02/10 03:05:23;;;;;;;10.32;3.47;;;;;;;;;;5088497;28;20044;-74
2023/02/10 03:07:54;;;;;;;5.47;3.30;;;;;;;;;;5070946;28;20067;-74
2023/02/10 03:10:24;;;;;;;7.07;3.97;;;;;;;;;;5088685;28;20056;-74
2023/02/10 03:12:56;;;;;;;4.70;3.63;;;;;;;;;;5088548;28;20044;-74
2023/02/10 03:15:27;;;;;;;3.40;3.10;;;;;;;;;;5070176;28;20056;-74
2023/02/10 03:17:57;;;;;;;9.15;3.75;;;;;;;;;;5088774;28;20052;-74
2023/02/10 03:20:27;;;;;;;4.72;3.50;;;;;;;;;;5088784;28;20047;-73
2023/02/10 03:22:58;;;;;;;4.80;3.42;;;;;;;;;;5088728;28;20067;-74
2023/02/10 03:25:29;;;;;;;14.70;3.85;;;;;;;;;;5070888;28;20044;-74
2023/02/10 03:27:59;;;;;;;7.15;3.63;;;;;;;;;;5088631;28;20514;-74
2023/02/10 03:30:30;;;;;;;5.80;3.90;;;;;;;;;;5088669;28;20519;-74
2023/02/10 03:33:06;;;;;;;6.07;3.65;;;;;;;;;;5088449;28;20407;-74
2023/02/10 03:35:38;;;;;;;6.05;3.40;;;;;;;;;;5088675;28;20051;-74
2023/02/10 03:38:09;;;;;;;7.95;3.42;;;;;;;;;;5088284;28;20528;-74
2023/02/10 03:40:41;;;;;;;7.93;3.63;;;;;;;;;;5088206;28;20052;-73
2023/02/10 03:46:09;;;;;;;5.68;3.42;;;;;;;;;;5088140;28;20051;-74
2023/02/10 03:48:40;;;;;;;7.18;3.60;;;;;;;;;;5088442;28;20047;-73
2023/02/10 03:51:12;;;;;;;7.88;3.33;;;;;;;;;;5088395;28;20059;-73
2023/02/10 03:53:54;;;;;;;8.50;3.90;;;;;;;;;;5072895;28;20047;-73
2023/02/10 03:56:25;;;;;;;5.05;3.80;;;;;;;;;;5069438;28;20052;-74
2023/02/10 03:59:00;;;;;;;6.28;3.75;;;;;;;;;;5088243;28;20047;-73
2023/02/10 04:01:33;;;;;;;7.85;3.78;;;;;;;;;;5088044;28;20040;-74
2023/02/10 04:04:04;;;;;;;7.82;3.78;;;;;;;;;;5087916;28;20052;-74
2023/02/10 04:06:34;;;;;;;9.60;3.80;;;;;;;;;;5087905;28;20074;-73
2023/02/10 04:09:05;;;;;;;8.73;3.60;;;;;;;;;;5087874;28;20048;-74
2023/02/10 04:11:35;;;;;;;5.50;3.72;;;;;;;;;;5068664;28;20048;-73
2023/02/10 04:14:05;;;;;;;9.13;3.63;;;;;;;;;;5088270;28;20040;-74
2023/02/10 04:16:35;;;;;;;8.35;3.38;;;;;;;;;;5087157;28;20052;-73
2023/02/10 04:19:08;;;;;;;9.82;3.40;;;;;;;;;;5087745;28;20040;-73
2023/02/10 04:21:39;;;;;;;7.43;3.60;;;;;;;;;;5087579;28;20521;-73
2023/02/10 04:24:08;;;;;;;12.27;3.40;;;;;;;;;;5087266;28;20067;-73
2023/02/10 04:26:39;;;;;;;6.35;3.70;;;;;;;;;;5087513;28;20499;-74
2023/02/10 04:29:09;;;;;;;3.47;2.92;;;;;;;;;;5087648;28;20048;-74
2023/02/10 04:31:40;;;;;;;8.52;3.60;;;;;;;;;;5087342;28;20442;-73
2023/02/10 04:34:11;;;;;;;4.43;3.38;;;;;;;;;;5070481;28;20671;-74
2023/02/10 04:36:48;;;;;;;7.78;3.63;;;;;;;;;;5087669;28;20044;-73
2023/02/10 04:39:23;;;;;;;5.68;3.63;;;;;;;;;;5087838;28;20048;-74
2023/02/10 04:41:53;;;;;;;8.05;4.00;;;;;;;;;;5087402;28;20475;-74
2023/02/10 04:44:24;;;;;;;6.40;3.30;;;;;;;;;;5087298;28;20048;-73
2023/02/10 04:46:55;;;;;;;5.95;3.70;;;;;;;;;;5086925;28;20071;-74
2023/02/10 04:49:26;;;;;;;6.60;4.00;;;;;;;;;;5069689;28;20052;-74
2023/02/10 04:51:58;;;;;;;7.45;3.90;;;;;;;;;;5086976;28;20044;-73
2023/02/10 04:54:43;;;;;;;8.35;4.00;;;;;;;;;;5087360;28;20051;-74
2023/02/10 04:57:14;;;;;;;7.45;3.60;;;;;;;;;;5087333;28;20052;-74
2023/02/10 04:59:53;;;;;;;6.65;3.42;;;;;;;;;;5087149;28;20051;-74
2023/02/10 05:02:24;;;;;;;6.28;3.58;;;;;;;;;;5069565;28;20047;-74
2023/02/10 05:04:54;;;;;;;8.48;3.78;;;;;;;;;;5087318;28;20052;-74
2023/02/10 05:07:27;;;;;;;5.75;4.07;;;;;;;;;;5087147;28;20071;-74
2023/02/10 05:09:58;;;;;;;9.27;4.05;;;;;;;;;;5069448;28;20059;-74
2023/02/10 05:12:28;;;;;;;8.00;3.42;;;;;;;;;;5086627;28;20044;-74
2023/02/10 05:14:58;;;;;;;11.48;4.13;;;;;;;;;;5086645;28;20872;-73
2023/02/10 05:17:49;;;;;;;9.90;3.70;;;;;;;;;;5084853;28;20056;-74
2023/02/10 05:20:20;;;;;;;4.75;3.70;;;;;;;;;;5086737;28;20043;-74
2023/02/10 05:23:11;;;;;;;5.80;3.45;;;;;;;;;;5072243;28;20055;-74
2023/02/10 05:25:42;;;;;;;7.15;4.20;;;;;;;;;;5068656;28;20396;-73
2023/02/10 05:28:13;;;;;;;5.63;3.90;;;;;;;;;;5086921;28;20407;-74
2023/02/10 05:30:43;;;;;;;10.13;3.97;;;;;;;;;;5086576;28;20059;-74
2023/02/10 05:33:14;;;;;;;5.60;4.05;;;;;;;;;;5086660;28;20051;-73
2023/02/10 05:35:44;;;;;;;6.43;4.38;;;;;;;;;;5089459;28;20078;-74
2023/02/10 05:38:26;;;;;;;7.38;4.07;;;;;;;;;;5090753;28;20048;-74
2023/02/10 05:40:57;;;;;;;8.13;4.07;;;;;;;;;;5090805;28;20051;-74
2023/02/10 05:43:29;;;;;;;7.70;4.10;;;;;;;;;;5090466;28;20107;-74
2023/02/10 05:46:00;;;;;;;7.25;4.07;;;;;;;;;;5072668;28;20063;-74
2023/02/10 05:48:30;;;;;;;6.88;3.95;;;;;;;;;;5090705;28;20047;-73
2023/02/10 05:51:00;;;;;;;7.63;4.38;;;;;;;;;;5090330;28;20418;-74
2023/02/10 05:53:47;;;;;;;6.60;4.05;;;;;;;;;;5090773;28;20055;-74
2023/02/10 05:56:18;;;;;;;8.98;4.78;;;;;;;;;;5090661;28;20040;-74
2023/02/10 05:58:48;;;;;;;6.07;4.13;;;;;;;;;;5072505;28;20055;-74
2023/02/10 06:01:18;;;;;;;6.07;3.60;;;;;;;;;;5090675;28;20047;-74
2023/02/10 06:03:51;;;;;;;10.30;3.90;;;;;;;;;;5090404;28;20628;-73
2023/02/10 06:06:22;;;;;;;7.95;4.35;;;;;;;;;;5072488;28;20518;-74
2023/02/10 06:09:18;;;;;;;6.93;4.03;;;;;;;;;;5089778;28;20065;-74
2023/02/10 06:12:01;;;;;;;10.00;4.40;;;;;;;;;;5090291;28;20052;-74
2023/02/10 06:14:32;;;;;;;8.55;4.80;;;;;;;;;;5090186;28;20048;-73
2023/02/10 06:17:03;;;;;;;5.20;4.30;;;;;;;;;;5090315;28;20044;-74
2023/02/10 06:19:33;;;;;;;8.05;4.55;;;;;;;;;;5089744;28;20048;-74
2023/02/10 06:22:06;;;;;;;7.07;4.10;;;;;;;;;;5089756;28;20040;-73
2023/02/10 06:24:36;;;;;;;7.57;4.07;;;;;;;;;;5089194;28;20052;-74
2023/02/10 06:27:07;;;;;;;7.53;4.43;;;;;;;;;;5071696;28;20052;-74
2023/02/10 06:29:55;;;;;;;9.32;4.28;;;;;;;;;;5071672;28;20048;-73
2023/02/10 06:32:26;;;;;;;7.25;4.38;;;;;;;;;;5089827;28;20052;-73
2023/02/10 06:34:55;;;;;;;6.95;3.97;;;;;;;;;;5089595;28;20059;-74
2023/02/10 06:37:39;;;;;;;6.82;4.40;;;;;;;;;;5086860;28;20052;-73
2023/02/10 06:40:11;;;;;;;6.22;4.38;;;;;;;;;;5089296;28;20067;-74
2023/02/10 06:42:43;;;;;;;8.55;4.53;;;;;;;;;;5089432;28;20055;-73
2023/02/10 06:45:13;;;;;;;6.30;4.75;;;;;;;;;;5089426;28;20502;-74
2023/02/10 06:47:44;;;;;;;10.07;4.32;;;;;;;;;;5089125;28;20060;-74
2023/02/10 06:50:17;;;;;;;9.75;4.43;;;;;;;;;;5089318;28;20040;-74
2023/02/10 06:52:48;;;;;;;9.30;4.90;;;;;;;;;;5089398;28;20054;-74
2023/02/10 06:55:20;;;;;;;10.00;4.20;;;;;;;;;;5054850;28;20048;-74
2023/02/10 06:57:51;;;;;;;8.10;4.53;;;;;;;;;;5089415;28;20399;-74
2023/02/10 07:00:23;;;;;;;9.93;4.47;;;;;;;;;;5089681;28;20044;-74
2023/02/10 07:02:53;;;;;;;7.88;4.43;;;;;;;;;;5089391;28;20044;-74
2023/02/10 07:05:24;;;;;;;7.20;4.28;;;;;;;;;;5072114;28;20052;-73
2023/02/10 07:07:58;;;;;;;7.55;4.20;;;;;;;;;;5089170;28;20063;-74
2023/02/10 07:10:37;;;;;;;7.03;4.43;;;;;;;;;;5088899;28;20051;-74
2023/02/10 07:13:08;;;;;;;6.55;4.60;;;;;;;;;;5089027;28;20410;-74
2023/02/10 07:15:41;;;;;;;9.70;4.00;;;;;;;;;;5088967;28;20048;-74
2023/02/10 07:18:13;;;;;;;10.85;4.50;;;;;;;;;;5089333;28;20423;-74
2023/02/10 07:20:44;;;;;;;8.85;4.55;;;;;;;;;;5088954;28;20051;-74
2023/02/10 07:23:13;;;;;;;6.95;4.75;;;;;;;;;;5069775;28;20044;-74
2023/02/10 07:25:59;;;;;;;6.63;4.60;;;;;;;;;;5088674;28;20430;-74
2023/02/10 07:28:30;;;;;;;7.55;4.47;;;;;;;;;;5089494;28;20051;-74
2023/02/10 07:31:01;;;;;;;6.57;4.38;;;;;;;;;;5088953;28;20423;-74
2023/02/10 07:33:40;;;;;;;10.15;4.97;;;;;;;;;;5071115;28;20055;-74
2023/02/10 07:36:12;;;;;;;6.70;5.07;;;;;;;;;;5087948;28;20063;-74
2023/02/10 07:38:43;;;;;;;7.88;5.10;;;;;;;;;;5088928;28;20067;-74
2023/02/10 07:41:13;;;;;;;11.98;4.70;;;;;;;;;;5088291;28;20048;-74
2023/02/10 07:43:43;;;;;;;10.98;4.47;;;;;;;;;;5071308;28;20137;-74
2023/02/10 07:46:17;;;;;;;8.35;4.85;;;;;;;;;;5069952;28;20068;-74
2023/02/10 07:48:48;;;;;;;8.15;4.68;;;;;;;;;;5088340;28;20118;-74
2023/02/10 07:51:18;;;;;;;7.65;4.63;;;;;;;;;;5088346;28;20047;-74
2023/02/10 07:53:48;;;;;;;9.55;4.65;;;;;;;;;;5088533;28;20063;-74
2023/02/10 07:56:20;;;;;;;7.43;4.05;;;;;;;;;;5088264;28;20040;-74
2023/02/10 07:59:06;;;;;;;;;;;;;;;;;;;;;
2023/02/10 08:01:46;;;;;;;9.55;5.10;;;;;;;;;;5086360;28;20067;-74
2023/02/10 08:04:17;;;;;;;11.23;5.05;;;;;;;;;;5088361;28;20074;-74
2023/02/10 08:06:48;;;;;;;7.53;4.57;;;;;;;;;;5087942;28;20048;-73
2023/02/10 08:09:22;;;;;;;8.85;4.82;;;;;;;;;;5087635;28;20402;-74
2023/02/10 08:11:54;;;;;;;8.18;4.95;;;;;;;;;;5087970;28;20055;-74
2023/02/10 08:14:24;;;;;;;7.80;4.75;;;;;;;;;;5087805;28;20580;-74
2023/02/10 08:16:54;;;;;;;10.13;4.95;;;;;;;;;;5088258;28;20055;-74
2023/02/10 08:19:45;;;;;;;7.45;4.70;;;;;;;;;;5073964;28;20392;-74
2023/02/10 08:22:15;;;;;;;6.95;4.72;;;;;;;;;;5087601;28;20044;-74
2023/02/10 08:24:46;;;;;;;13.35;5.32;;;;;;;;;;5068815;28;20518;-74
2023/02/10 08:27:16;;;;;;;12.38;4.85;;;;;;;;;;5087644;28;20053;-74
2023/02/10 08:29:45;;;;;;;10.43;5.28;;;;;;;;;;5087791;28;20043;-74
2023/02/10 08:32:18;;;;;;;10.75;5.53;;;;;;;;;;5087512;28;20404;-74
2023/02/10 08:34:50;;;;;;;7.43;4.85;;;;;;;;;;5087472;28;20426;-74
2023/02/10 08:37:21;;;;;;;9.40;5.00;;;;;;;;;;5087362;28;20055;-74
2023/02/10 08:39:51;;;;;;;13.30;5.43;;;;;;;;;;5087355;28;20544;-78
2023/02/10 08:42:42;;;;;;;8.25;5.13;;;;;;;;;;5089556;28;20060;-77
2023/02/10 08:45:13;;;;;;;12.77;5.30;;;;;;;;;;5087156;28;20044;-78
2023/02/10 08:47:44;;;;;;;8.93;5.10;;;;;;;;;;5086661;28;20064;-77
2023/02/10 08:50:14;;;;;;;10.80;5.60;;;;;;;;;;5087044;28;20566;-76
2023/02/10 08:52:44;;;;;;;12.20;5.30;;;;;;;;;;5086888;28;20048;-74
2023/02/10 08:55:15;;;;;;;10.98;5.47;;;;;;;;;;5087018;28;20044;-77
2023/02/10 08:57:51;;;;;;;10.10;5.93;;;;;;;;;;5087145;28;20040;-77
2023/02/10 09:00:24;;;;;;;13.20;5.90;;;;;;;;;;5087174;28;20434;-76
2023/02/10 09:02:54;;;;;;;12.60;5.60;;;;;;;;;;5069554;28;20051;-75
2023/02/10 09:05:25;;;;;;;8.35;5.40;;;;;;;;;;5069153;28;20055;-74
2023/02/10 09:07:56;;;;;;;9.80;5.43;;;;;;;;;;5087640;28;20044;-76
2023/02/10 09:10:25;;;;;;;6.72;5.50;;;;;;;;;;5086083;28;20044;-75
2023/02/10 09:12:56;;;;;;;9.40;5.30;;;;;;;;;;5051721;28;20059;-75
2023/02/10 09:15:28;;;;;;;16.23;6.13;;;;;;;;;;5086811;28;20044;-78
2023/02/10 09:18:27;;;;;;;15.32;6.15;;;;;;;;;;5086814;28;20529;-75
2023/02/10 09:21:01;;;;;;;10.88;5.57;;;;;;;;;;5061889;28;20074;-74
2023/02/10 09:23:33;;;;;;;24.25;6.30;;;;;;;;;;5086628;28;20403;-77
2023/02/10 09:26:04;;;;;;;23.42;6.70;;;;;;;;;;5086629;28;20051;-78
2023/02/10 09:28:45;;;;;;;23.13;5.80;;;;;;;;;;5086291;28;20414;-77
2023/02/10 09:31:16;;;;;;;19.48;5.60;;;;;;;;;;5086857;28;20059;-77
2023/02/10 09:33:49;;;;;;;15.38;6.60;;;;;;;;;;5068401;28;20052;-77
2023/02/10 09:36:21;;;;;;;15.80;5.72;;;;;;;;;;5086662;28;20055;-74
2023/02/10 09:38:55;;;;;;;12.77;5.82;;;;;;;;;;5086187;28;20055;-76
2023/02/10 09:41:44;;;;;;;16.33;5.88;;;;;;;;;;5086357;28;20040;-76
2023/02/10 09:44:21;;;;;;;10.52;5.28;;;;;;;;;;5086606;28;20385;-75
2023/02/10 09:47:29;;;;;;;14.35;5.40;;;;;;;;;;5086341;28;20063;-74
2023/02/10 09:50:18;;;;;;;15.23;6.05;;;;;;;;;;5054146;28;20522;-78
2023/02/10 09:53:00;;;;;;;9.40;5.63;;;;;;;;;;5086472;28;20410;-76
2023/02/10 09:55:38;;;;;;;10.27;6.03;;;;;;;;;;5086663;28;20047;-76
2023/02/10 09:58:16;;;;;;;6.43;5.40;;;;;;;;;;5086817;28;20521;-79
2023/02/10 10:01:12;;;;;;;14.43;5.43;;;;;;;;;;5086390;28;20757;-75
2023/02/10 10:04:06;;;;;;;8.85;5.40;;;;;;;;;;5088324;28;20055;-76
2023/02/10 10:06:43;;;;;;;11.10;5.95;;;;;;;;;;5106333;28;20044;-79
2023/02/10 10:09:35;;;;;;;13.85;5.82;;;;;;;;;;5106659;28;20513;-77
2023/02/10 10:12:19;;;;;;;11.88;5.38;;;;;;;;;;5105900;28;20434;-78
2023/02/10 10:14:50;;;;;;;9.70;5.35;;;;;;;;;;5106229;28;20597;-77
2023/02/10 10:17:40;;;;;;;12.00;5.93;;;;;;;;;;5106872;28;20047;-77
2023/02/10 10:20:35;;;;;;;17.95;5.65;;;;;;;;;;5106879;28;20067;-75
2023/02/10 10:23:46;;;;;;;;;;;;;;;;;;;;;
2023/02/10 10:26:46;;;;;;;24.52;5.10;;;;;;;;;;5110391;28;20046;-76
2023/02/10 10:29:36;;;;;;;20.58;6.15;;;;;;;;;;5095150;28;20506;-78
2023/02/10 10:35:49;;;;;;;17.95;9.05;;;;;;;;;;5083957;28;20064;-80
2023/02/10 10:38:24;;;;;;;12.60;6.57;;;;;;;;;;5092106;28;20047;-79
2023/02/10 10:41:01;;;;;;;14.80;5.40;;;;;;;;;;5097662;28;20123;-76
2023/02/10 10:43:38;;;;;;;11.10;4.82;;;;;;;;;;5072162;28;20612;-79
2023/02/10 10:46:24;;;;;;;10.63;4.70;;;;;;;;;;5089113;28;20052;-75
2023/02/10 10:48:56;;;;;;;17.23;4.43;;;;;;;;;;5094372;28;20486;-80
2023/02/10 10:51:27;;;;;;;10.27;4.03;;;;;;;;;;5100738;28;20055;-77
2023/02/10 10:53:58;;;;;;;9.43;4.05;;;;;;;;;;5097838;28;20040;-77
2023/02/10 10:56:32;;;;;;;11.82;4.13;;;;;;;;;;5093147;28;20056;-79
2023/02/10 10:59:23;;;;;;;13.93;4.38;;;;;;;;;;5088648;28;20059;-76
2023/02/10 11:01:54;;;;;;;12.50;3.55;;;;;;;;;;5088270;28;20048;-77
2023/02/10 11:04:28;;;;;;;15.00;4.70;;;;;;;;;;5088560;28;20048;-79
2023/02/10 11:07:01;;;;;;;14.30;3.58;;;;;;;;;;5069334;28;20052;-76
2023/02/10 11:09:36;;;;;;;10.30;4.00;;;;;;;;;;5088956;28;20067;-77
2023/02/10 11:12:34;;;;;;;6.15;3.17;;;;;;;;;;5089389;28;20048;-78
2023/02/10 11:15:31;;;;;;;8.18;3.03;;;;;;;;;;5088769;28;20079;-77
2023/02/10 11:18:05;;;;;;;10.50;3.67;;;;;;;;;;5089124;28;20051;-77
2023/02/10 11:20:36;;;;;;;4.85;3.13;;;;;;;;;;5089188;28;20059;-78
2023/02/10 11:23:16;;;;;;;12.73;3.67;;;;;;;;;;5088785;28;20503;-76
2023/02/10 11:25:54;;;;;;;9.70;3.15;;;;;;;;;;5088320;28;20058;-78
2023/02/10 11:28:29;;;;;;;6.25;2.80;;;;;;;;;;5088519;28;20044;-78
2023/02/10 11:31:13;;;;;;;9.32;3.78;;;;;;;;;;5088935;28;20048;-77
2023/02/10 11:33:57;;;;;;;10.88;3.75;;;;;;;;;;5087654;28;20085;-77
2023/02/10 11:36:39;;;;;;;12.15;5.13;;;;;;;;;;5071166;28;20040;-77
2023/02/10 11:39:38;;;;;;;7.88;3.15;;;;;;;;;;5088514;28;20059;-77
2023/02/10 11:42:17;;;;;;;6.20;3.28;;;;;;;;;;5087347;28;20063;-79
2023/02/10 11:45:11;;;;;;;7.47;2.85;;;;;;;;;;5069708;28;20075;-78
2023/02/10 11:47:41;;;;;;;5.57;3.72;;;;;;;;;;5087989;28;20059;-77
2023/02/10 11:50:28;;;;;;;7.75;2.95;;;;;;;;;;5088519;28;20044;-76
2023/02/10 11:52:59;;;;;;;16.08;4.15;;;;;;;;;;5088589;28;20059;-78
2023/02/10 11:55:59;;;;;;;10.80;4.93;;;;;;;;;;5071090;28;20047;-77
2023/02/10 12:01:58;;;;;;;6.40;3.45;;;;;;;;;;5087326;28;20048;-80
2023/02/10 12:04:58;;;;;;;6.63;3.13;;;;;;;;;;5088101;28;20052;-79
2023/02/10 12:07:49;;;;;;;5.63;2.80;;;;;;;;;;5088372;28;20435;-77
2023/02/10 12:10:47;;;;;;;8.23;3.50;;;;;;;;;;5087901;28;20052;-77
2023/02/10 12:13:18;;;;;;;8.80;3.38;;;;;;;;;;5088033;28;20051;-78
2023/02/10 12:16:22;;;;;;;14.52;3.35;;;;;;;;;;5087922;28;20059;-80
2023/02/10 12:18:58;;;;;;;16.20;3.28;;;;;;;;;;5088296;28;20043;-80
2023/02/10 12:21:55;;;;;;;7.78;3.45;;;;;;;;;;5087742;28;20039;-79
2023/02/10 12:24:43;;;;;;;7.25;3.20;;;;;;;;;;5088214;28;20047;-79
2023/02/10 12:27:19;;;;;;;7.28;3.13;;;;;;;;;;5087532;28;20048;-79
2023/02/10 12:30:05;;;;;;;6.85;3.20;;;;;;;;;;5069949;28;20052;-79
2023/02/10 12:33:12;;;;;;;7.03;3.17;;;;;;;;;;5087483;28;20052;-82
2023/02/10 12:36:23;;;;;;;7.22;3.45;;;;;;;;;;5087299;28;20051;-79
2023/02/10 12:39:21;;;;;;;;;;;;;;;;;;;;;
2023/02/10 12:42:29;;;;;;;8.05;3.20;;;;;;;;;;5087397;28;20055;-78
2023/02/10 12:45:09;;;;;;;13.13;4.13;;;;;;;;;;5087343;28;20506;-80
2023/02/10 12:48:28;;;;;;;8.23;3.25;;;;;;;;;;5070098;28;20545;-79
2023/02/10 12:51:36;;;;;;;6.53;2.90;;;;;;;;;;5053097;28;20787;-77
2023/02/10 12:54:36;;;;;;;4.90;3.10;;;;;;;;;;5086948;28;20051;-78
2023/02/10 12:57:29;;;;;;;7.03;3.05;;;;;;;;;;5068287;28;20060;-79
2023/02/10 13:00:04;;;;;;;9.68;3.53;;;;;;;;;;5087327;28;20055;-77
2023/02/10 13:02:41;;;;;;;5.13;3.20;;;;;;;;;;5087033;28;20051;-77
2023/02/10 13:05:17;;;;;;;7.72;3.35;;;;;;;;;;5087454;28;20056;-78
2023/02/10 13:08:12;;;;;;;;;;;;;;;;;;;;;
2023/02/10 13:10:59;;;;;;;9.57;3.30;;;;;;;;;;5085891;28;20059;-79
2023/02/10 13:13:50;;;;;;;8.07;3.38;;;;;;;;;;5069464;28;20059;-77
2023/02/10 13:16:32;;;;;;;10.15;4.07;;;;;;;;;;5087027;28;20491;-80
2023/02/10 13:19:24;;;;;;;10.52;3.22;;;;;;;;;;5086921;28;20055;-79
2023/02/10 13:21:59;;;;;;;7.28;2.97;;;;;;;;;;5087096;28;20051;-79
2023/02/10 13:25:14;;;;;;;9.02;3.13;;;;;;;;;;5086679;28;20058;-78
2023/02/10 13:28:03;;;;;;;5.78;3.17;;;;;;;;;;5086811;28;20067;-78
2023/02/10 13:30:40;;;;;;;12.07;3.70;;;;;;;;;;5086237;28;20055;-78
2023/02/10 13:33:49;;;;;;;7.50;3.70;;;;;;;;;;5086861;28;20044;-83
2023/02/10 13:36:28;;;;;;;7.78;3.83;;;;;;;;;;5086664;28;20074;-78
2023/02/10 13:39:19;;;;;;;11.88;3.88;;;;;;;;;;5086475;28;20051;-79
2023/02/10 13:41:52;;;;;;;7.15;3.47;;;;;;;;;;5069220;28;20426;-76
2023/02/10 13:44:32;;;;;;;8.98;4.43;;;;;;;;;;5086626;28;20091;-79
2023/02/10 13:47:09;;;;;;;10.75;5.05;;;;;;;;;;5068619;28;20056;-77
2023/02/10 13:50:22;;;;;;;4.75;3.38;;;;;;;;;;5072755;28;20419;-81
2023/02/10 13:53:07;;;;;;;5.55;3.17;;;;;;;;;;5087688;28;20055;-82
2023/02/10 13:58:59;;;;;;;4.38;3.00;;;;;;;;;;5092879;28;20040;-76
2023/02/10 14:01:48;;;;;;;6.50;3.35;;;;;;;;;;5090448;28;20048;-77
2023/02/10 14:04:20;;;;;;;6.13;3.05;;;;;;;;;;5091120;28;20052;-77
2023/02/10 14:06:53;;;;;;;6.32;3.47;;;;;;;;;;5071801;28;20052;-77
2023/02/10 14:09:29;;;;;;;6.97;3.40;;;;;;;;;;5091487;28;20044;-78
2023/02/10 14:12:02;;;;;;;4.60;3.33;;;;;;;;;;5090822;28;20048;-79
2023/02/10 14:14:34;;;;;;;6.95;3.42;;;;;;;;;;5090107;28;20052;-79
2023/02/10 14:17:19;;;;;;;4.53;3.33;;;;;;;;;;5090163;28;20512;-80
2023/02/10 14:19:51;;;;;;;8.85;3.67;;;;;;;;;;5090500;28;20047;-79
2023/02/10 14:22:24;;;;;;;5.28;3.15;;;;;;;;;;5090654;28;20765;-78
2023/02/10 14:25:13;;;;;;;7.28;3.28;;;;;;;;;;5089884;28;20624;-79
2023/02/10 14:27:55;;;;;;;13.00;3.45;;;;;;;;;;5072138;28;20122;-78
2023/02/10 14:30:44;;;;;;;4.32;3.08;;;;;;;;;;5089567;28;20052;-79
2023/02/10 14:33:35;;;;;;;6.80;2.85;;;;;;;;;;5089355;28;20047;-77
2023/02/10 14:36:19;;;;;;;8.35;3.60;;;;;;;;;;5089885;28;20051;-77
2023/02/10 14:39:00;;;;;;;6.70;3.25;;;;;;;;;;5089225;28;20059;-78
2023/02/10 14:41:43;;;;;;;10.15;3.30;;;;;;;;;;5089815;28;20048;-80
2023/02/10 14:44:43;;;;;;;9.45;2.88;;;;;;;;;;5090000;28;20052;-79
2023/02/10 14:47:27;;;;;;;6.82;3.53;;;;;;;;;;5089244;28;20044;-79
2023/02/10 14:49:59;;;;;;;5.18;2.90;;;;;;;;;;5089718;28;20048;-75
2023/02/10 14:52:39;;;;;;;8.50;3.35;;;;;;;;;;5089960;28;20356;-79
2023/02/10 14:55:32;;;;;;;7.78;3.35;;;;;;;;;;5056075;28;20502;-78
2023/02/10 14:58:05;;;;;;;;;;;;;;;;;;5090733;28;20506;-78
2023/02/10 15:00:37;;;;;;;7.28;3.78;;;;;;;;;;5089067;28;19920;-79
2023/02/10 15:03:12;;;;;;;12.07;3.42;;;;;;;;;;5090198;28;20048;-80
2023/02/10 15:06:00;;;;;;;6.45;2.85;;;;;;;;;;5089448;28;20494;-76
2023/02/10 15:08:37;;;;;;;7.75;2.92;;;;;;;;;;5071340;28;20055;-78
2023/02/10 15:14:22;;;;;;;4.20;2.75;;;;;;;;;;5090738;28;20422;-77
2023/02/10 15:16:54;;;;;;;5.00;3.13;;;;;;;;;;5089260;28;20402;-79
2023/02/10 15:19:25;;;;;;;6.90;3.13;;;;;;;;;;5072449;28;20418;-79
2023/02/10 15:21:57;;;;;;;9.10;2.70;;;;;;;;;;5088937;28;20055;-79
2023/02/10 15:24:30;;;;;;;11.50;2.92;;;;;;;;;;5089975;28;20055;-79
2023/02/10 15:27:15;;;;;;;7.00;2.65;;;;;;;;;;5092084;28;20044;-79
2023/02/10 15:29:46;;;;;;;5.60;2.30;;;;;;;;;;5090497;28;20047;-80
2023/02/10 15:32:19;;;;;;;12.90;2.58;;;;;;;;;;5089409;28;20044;-79
2023/02/10 15:34:52;;;;;;;6.78;2.50;;;;;;;;;;5088643;28;20040;-78
2023/02/10 15:37:28;;;;;;;6.22;2.30;;;;;;;;;;5089440;28;20044;-78
2023/02/10 15:40:26;;;;;;;9.20;2.13;;;;;;;;;;5088691;28;20070;-78
2023/02/10 15:43:28;;;;;;;4.75;2.28;;;;;;;;;;5089861;28;20051;-77
2023/02/10 15:46:16;;;;;;;5.40;2.03;;;;;;;;;;5072190;28;20506;-77
2023/02/10 15:48:47;;;;;;;5.63;2.10;;;;;;;;;;5089451;28;20526;-79
2023/02/10 15:51:27;;;;;;;5.45;2.35;;;;;;;;;;5087416;28;20051;-80
2023/02/10 15:53:59;;;;;;;6.43;2.50;;;;;;;;;;5089512;28;21173;-80
2023/02/10 15:56:30;;;;;;;5.15;2.05;;;;;;;;;;5088610;28;20044;-76
2023/02/10 15:59:00;;;;;;;7.03;2.00;;;;;;;;;;5090317;28;20055;-78
2023/02/10 16:01:30;;;;;;;5.05;1.83;;;;;;;;;;5090215;28;20597;-80
2023/02/10 16:04:02;;;;;;;3.50;2.13;;;;;;;;;;5070747;28;20047;-76
2023/02/10 16:06:50;;;;;;;3.33;1.98;;;;;;;;;;5071275;28;20051;-79
2023/02/10 16:09:20;;;;;;;3.90;1.77;;;;;;;;;;5090664;28;20048;-78
2023/02/10 16:11:51;;;;;;;4.90;1.80;;;;;;;;;;5054425;28;20048;-77